sensor_id;sensor_type;location;lat;lon;timestamp;P1;durP1;ratioP1;P2;durP2;ratioP2
5612;SDS011;63463;53.586;9.928;2023-01-16T00:01:58;7.67;;;7.00;;
5612;SDS011;63463;53.586;9.928;2023-01-16T00:04:25;8.17;;;7.47;;
5612;SDS011;63463;53.586;9.928;2023-01-16T00:06:51;8.77;;;7.87;;
5612;SDS011;63463;53.586;9.928;2023-01-16T00:09:17;9.40;;;8.50;;
5612;SDS011;63463;53.586;9.928;2023-01-16T00:11:43;9.33;;;8.37;;
5612;SDS011;63463;53.586;9.928;2023-01-16T00:14:09;10.10;;;8.10;;
5612;SDS011;63463;53.586;9.928;2023-01-16T00:16:35;8.37;;;7.67;;
5612;SDS011;63463;53.586;9.928;2023-01-16T00:19:01;9.00;;;8.10;;
5612;SDS011;63463;53.586;9.928;2023-01-16T00:21:27;8.70;;;8.00;;
5612;SDS011;63463;53.586;9.928;2023-01-16T00:23:54;12.70;;;8.17;;
5612;SDS011;63463;53.586;9.928;2023-01-16T00:26:21;10.50;;;8.47;;
5612;SDS011;63463;53.586;9.928;2023-01-16T00:28:48;11.33;;;8.50;;
5612;SDS011;63463;53.586;9.928;2023-01-16T00:31:14;8.80;;;8.00;;
5612;SDS011;63463;53.586;9.928;2023-01-16T00:33:40;10.63;;;8.20;;
5612;SDS011;63463;53.586;9.928;2023-01-16T00:36:07;12.83;;;7.80;;
5612;SDS011;63463;53.586;9.928;2023-01-16T00:38:33;10.73;;;8.20;;
5612;SDS011;63463;53.586;9.928;2023-01-16T00:40:59;12.13;;;8.43;;
5612;SDS011;63463;53.586;9.928;2023-01-16T00:43:25;8.93;;;8.03;;
5612;SDS011;63463;53.586;9.928;2023-01-16T00:45:51;11.43;;;8.40;;
5612;SDS011;63463;53.586;9.928;2023-01-16T00:48:17;18.70;;;8.63;;
5612;SDS011;63463;53.586;9.928;2023-01-16T00:50:43;10.77;;;7.73;;
5612;SDS011;63463;53.586;9.928;2023-01-16T00:53:09;11.20;;;8.33;;
5612;SDS011;63463;53.586;9.928;2023-01-16T00:55:35;8.03;;;7.43;;
5612;SDS011;63463;53.586;9.928;2023-01-16T00:58:02;8.50;;;7.57;;
5612;SDS011;63463;53.586;9.928;2023-01-16T01:00:28;15.27;;;7.93;;
5612;SDS011;63463;53.586;9.928;2023-01-16T01:02:54;7.53;;;6.93;;
5612;SDS011;63463;53.586;9.928;2023-01-16T01:05:20;7.80;;;7.20;;
5612;SDS011;63463;53.586;9.928;2023-01-16T01:07:46;7.90;;;7.23;;
5612;SDS011;63463;53.586;9.928;2023-01-16T01:10:12;8.10;;;7.30;;
5612;SDS011;63463;53.586;9.928;2023-01-16T01:12:38;26.27;;;7.40;;
5612;SDS011;63463;53.586;9.928;2023-01-16T01:15:04;11.40;;;7.23;;
5612;SDS011;63463;53.586;9.928;2023-01-16T01:17:31;7.03;;;6.53;;
5612;SDS011;63463;53.586;9.928;2023-01-16T01:19:56;9.27;;;7.73;;
5612;SDS011;63463;53.586;9.928;2023-01-16T01:22:22;11.30;;;6.80;;
5612;SDS011;63463;53.586;9.928;2023-01-16T01:24:49;7.37;;;6.80;;
5612;SDS011;63463;53.586;9.928;2023-01-16T01:27:15;7.43;;;6.73;;
5612;SDS011;63463;53.586;9.928;2023-01-16T01:29:42;7.30;;;6.70;;
5612;SDS011;63463;53.586;9.928;2023-01-16T01:32:08;7.63;;;6.70;;
5612;SDS011;63463;53.586;9.928;2023-01-16T01:34:34;9.53;;;6.90;;
5612;SDS011;63463;53.586;9.928;2023-01-16T01:37:00;7.47;;;6.73;;
5612;SDS011;63463;53.586;9.928;2023-01-16T01:39:26;10.97;;;8.23;;
5612;SDS011;63463;53.586;9.928;2023-01-16T01:41:52;9.53;;;7.20;;
5612;SDS011;63463;53.586;9.928;2023-01-16T01:44:44;8.47;;;7.67;;
5612;SDS011;63463;53.586;9.928;2023-01-16T01:47:11;9.90;;;7.40;;
5612;SDS011;63463;53.586;9.928;2023-01-16T01:49:37;7.07;;;6.37;;
5612;SDS011;63463;53.586;9.928;2023-01-16T01:52:03;7.10;;;6.50;;
5612;SDS011;63463;53.586;9.928;2023-01-16T01:54:42;7.50;;;6.80;;
5612;SDS011;63463;53.586;9.928;2023-01-16T01:57:23;8.70;;;7.17;;
5612;SDS011;63463;53.586;9.928;2023-01-16T01:59:54;7.10;;;6.50;;
5612;SDS011;63463;53.586;9.928;2023-01-16T02:02:22;6.87;;;6.30;;
5612;SDS011;63463;53.586;9.928;2023-01-16T02:04:51;6.33;;;5.93;;
5612;SDS011;63463;53.586;9.928;2023-01-16T02:07:21;7.53;;;6.30;;
5612;SDS011;63463;53.586;9.928;2023-01-16T02:09:47;6.60;;;6.00;;
5612;SDS011;63463;53.586;9.928;2023-01-16T02:12:14;8.43;;;5.67;;
5612;SDS011;63463;53.586;9.928;2023-01-16T02:14:42;5.37;;;4.97;;
5612;SDS011;63463;53.586;9.928;2023-01-16T02:17:11;6.10;;;5.70;;
5612;SDS011;63463;53.586;9.928;2023-01-16T02:35:19;6.90;;;5.70;;
5612;SDS011;63463;53.586;9.928;2023-01-16T02:37:48;6.00;;;5.50;;
5612;SDS011;63463;53.586;9.928;2023-01-16T02:40:31;5.60;;;5.20;;
5612;SDS011;63463;53.586;9.928;2023-01-16T02:45:42;5.87;;;5.37;;
5612;SDS011;63463;53.586;9.928;2023-01-16T02:50:40;5.10;;;4.80;;
5612;SDS011;63463;53.586;9.928;2023-01-16T02:53:16;7.60;;;4.80;;
5612;SDS011;63463;53.586;9.928;2023-01-16T02:55:49;6.43;;;5.07;;
5612;SDS011;63463;53.586;9.928;2023-01-16T02:58:17;5.77;;;5.37;;
5612;SDS011;63463;53.586;9.928;2023-01-16T03:03:27;5.93;;;5.53;;
5612;SDS011;63463;53.586;9.928;2023-01-16T03:05:56;6.50;;;5.87;;
5612;SDS011;63463;53.586;9.928;2023-01-16T03:08:33;4.93;;;4.70;;
5612;SDS011;63463;53.586;9.928;2023-01-16T03:11:22;5.70;;;5.20;;
5612;SDS011;63463;53.586;9.928;2023-01-16T03:13:55;8.57;;;5.37;;
5612;SDS011;63463;53.586;9.928;2023-01-16T03:16:32;5.73;;;5.10;;
5612;SDS011;63463;53.586;9.928;2023-01-16T03:21:32;5.40;;;4.90;;
5612;SDS011;63463;53.586;9.928;2023-01-16T03:24:06;5.50;;;5.20;;
5612;SDS011;63463;53.586;9.928;2023-01-16T03:26:46;5.83;;;4.47;;
5612;SDS011;63463;53.586;9.928;2023-01-16T03:29:30;7.30;;;5.40;;
5612;SDS011;63463;53.586;9.928;2023-01-16T03:34:28;5.70;;;5.30;;
5612;SDS011;63463;53.586;9.928;2023-01-16T03:36:56;8.17;;;6.10;;
5612;SDS011;63463;53.586;9.928;2023-01-16T03:39:24;7.77;;;5.80;;
5612;SDS011;63463;53.586;9.928;2023-01-16T03:41:53;5.67;;;5.17;;
5612;SDS011;63463;53.586;9.928;2023-01-16T03:44:27;7.70;;;5.53;;
5612;SDS011;63463;53.586;9.928;2023-01-16T03:46:56;6.10;;;5.57;;
5612;SDS011;63463;53.586;9.928;2023-01-16T03:49:31;4.83;;;4.63;;
5612;SDS011;63463;53.586;9.928;2023-01-16T03:51:59;5.73;;;5.17;;
5612;SDS011;63463;53.586;9.928;2023-01-16T03:56:56;5.83;;;5.50;;
5612;SDS011;63463;53.586;9.928;2023-01-16T03:59:22;7.50;;;5.40;;
5612;SDS011;63463;53.586;9.928;2023-01-16T04:04:15;6.00;;;5.57;;
5612;SDS011;63463;53.586;9.928;2023-01-16T04:09:12;6.50;;;5.80;;
5612;SDS011;63463;53.586;9.928;2023-01-16T04:11:40;5.67;;;5.17;;
5612;SDS011;63463;53.586;9.928;2023-01-16T04:14:07;5.47;;;5.10;;
5612;SDS011;63463;53.586;9.928;2023-01-16T04:16:34;13.97;;;5.10;;
5612;SDS011;63463;53.586;9.928;2023-01-16T04:19:01;6.23;;;5.73;;
5612;SDS011;63463;53.586;9.928;2023-01-16T04:21:27;5.70;;;5.13;;
5612;SDS011;63463;53.586;9.928;2023-01-16T04:23:54;5.30;;;5.00;;
5612;SDS011;63463;53.586;9.928;2023-01-16T04:26:21;6.93;;;5.30;;
5612;SDS011;63463;53.586;9.928;2023-01-16T04:28:47;6.03;;;5.10;;
5612;SDS011;63463;53.586;9.928;2023-01-16T04:31:18;5.40;;;5.10;;
5612;SDS011;63463;53.586;9.928;2023-01-16T04:33:44;5.70;;;5.20;;
5612;SDS011;63463;53.586;9.928;2023-01-16T04:36:10;5.03;;;4.83;;
5612;SDS011;63463;53.586;9.928;2023-01-16T04:38:36;5.53;;;5.07;;
5612;SDS011;63463;53.586;9.928;2023-01-16T04:41:02;5.03;;;4.73;;
5612;SDS011;63463;53.586;9.928;2023-01-16T04:43:28;5.33;;;4.87;;
5612;SDS011;63463;53.586;9.928;2023-01-16T04:45:53;5.27;;;4.77;;
5612;SDS011;63463;53.586;9.928;2023-01-16T04:48:19;4.97;;;4.63;;
5612;SDS011;63463;53.586;9.928;2023-01-16T04:50:49;5.37;;;4.93;;
5612;SDS011;63463;53.586;9.928;2023-01-16T04:53:15;4.90;;;4.50;;
5612;SDS011;63463;53.586;9.928;2023-01-16T04:55:41;9.13;;;4.77;;
5612;SDS011;63463;53.586;9.928;2023-01-16T04:58:07;10.50;;;4.83;;
5612;SDS011;63463;53.586;9.928;2023-01-16T05:00:33;6.50;;;4.63;;
5612;SDS011;63463;53.586;9.928;2023-01-16T05:02:59;4.50;;;4.40;;
5612;SDS011;63463;53.586;9.928;2023-01-16T05:05:25;5.13;;;4.40;;
5612;SDS011;63463;53.586;9.928;2023-01-16T05:07:51;12.13;;;5.17;;
5612;SDS011;63463;53.586;9.928;2023-01-16T05:10:37;4.97;;;4.70;;
5612;SDS011;63463;53.586;9.928;2023-01-16T05:13:03;4.37;;;4.17;;
5612;SDS011;63463;53.586;9.928;2023-01-16T05:15:29;5.30;;;4.47;;
5612;SDS011;63463;53.586;9.928;2023-01-16T05:17:55;5.13;;;4.63;;
5612;SDS011;63463;53.586;9.928;2023-01-16T05:20:22;4.80;;;4.60;;
5612;SDS011;63463;53.586;9.928;2023-01-16T05:22:48;4.93;;;4.50;;
5612;SDS011;63463;53.586;9.928;2023-01-16T05:25:13;5.90;;;4.60;;
5612;SDS011;63463;53.586;9.928;2023-01-16T05:27:39;4.97;;;4.67;;
5612;SDS011;63463;53.586;9.928;2023-01-16T05:30:06;4.63;;;4.37;;
5612;SDS011;63463;53.586;9.928;2023-01-16T05:32:32;4.60;;;4.40;;
5612;SDS011;63463;53.586;9.928;2023-01-16T05:34:58;4.93;;;4.63;;
5612;SDS011;63463;53.586;9.928;2023-01-16T05:37:27;5.03;;;4.63;;
5612;SDS011;63463;53.586;9.928;2023-01-16T05:39:53;7.40;;;4.80;;
5612;SDS011;63463;53.586;9.928;2023-01-16T05:42:22;4.90;;;4.57;;
5612;SDS011;63463;53.586;9.928;2023-01-16T05:44:50;5.50;;;5.00;;
5612;SDS011;63463;53.586;9.928;2023-01-16T05:47:16;5.33;;;5.03;;
5612;SDS011;63463;53.586;9.928;2023-01-16T05:49:42;5.17;;;4.80;;
5612;SDS011;63463;53.586;9.928;2023-01-16T05:52:08;6.00;;;5.37;;
5612;SDS011;63463;53.586;9.928;2023-01-16T05:54:34;8.90;;;5.07;;
5612;SDS011;63463;53.586;9.928;2023-01-16T05:57:00;8.13;;;4.60;;
5612;SDS011;63463;53.586;9.928;2023-01-16T05:59:26;4.97;;;4.67;;
5612;SDS011;63463;53.586;9.928;2023-01-16T06:01:52;9.50;;;5.00;;
5612;SDS011;63463;53.586;9.928;2023-01-16T06:04:18;7.93;;;5.13;;
5612;SDS011;63463;53.586;9.928;2023-01-16T06:06:44;10.43;;;4.70;;
5612;SDS011;63463;53.586;9.928;2023-01-16T06:09:11;5.00;;;4.60;;
5612;SDS011;63463;53.586;9.928;2023-01-16T06:11:37;5.10;;;4.80;;
5612;SDS011;63463;53.586;9.928;2023-01-16T06:14:03;5.37;;;5.00;;
5612;SDS011;63463;53.586;9.928;2023-01-16T06:16:30;6.53;;;5.37;;
5612;SDS011;63463;53.586;9.928;2023-01-16T06:18:56;9.50;;;5.50;;
5612;SDS011;63463;53.586;9.928;2023-01-16T06:21:22;4.50;;;4.30;;
5612;SDS011;63463;53.586;9.928;2023-01-16T06:23:48;7.80;;;4.90;;
5612;SDS011;63463;53.586;9.928;2023-01-16T06:26:14;5.80;;;4.73;;
5612;SDS011;63463;53.586;9.928;2023-01-16T06:28:40;5.10;;;4.70;;
5612;SDS011;63463;53.586;9.928;2023-01-16T06:31:06;6.10;;;4.90;;
5612;SDS011;63463;53.586;9.928;2023-01-16T06:33:34;5.10;;;4.80;;
5612;SDS011;63463;53.586;9.928;2023-01-16T06:36:00;4.83;;;4.73;;
5612;SDS011;63463;53.586;9.928;2023-01-16T06:38:26;7.03;;;5.27;;
5612;SDS011;63463;53.586;9.928;2023-01-16T06:40:52;4.93;;;4.50;;
5612;SDS011;63463;53.586;9.928;2023-01-16T06:43:22;5.00;;;4.73;;
5612;SDS011;63463;53.586;9.928;2023-01-16T06:45:48;5.33;;;4.77;;
5612;SDS011;63463;53.586;9.928;2023-01-16T06:48:14;5.93;;;5.40;;
5612;SDS011;63463;53.586;9.928;2023-01-16T06:50:40;5.37;;;5.00;;
5612;SDS011;63463;53.586;9.928;2023-01-16T06:53:06;6.13;;;5.00;;
5612;SDS011;63463;53.586;9.928;2023-01-16T06:55:32;5.50;;;5.00;;
5612;SDS011;63463;53.586;9.928;2023-01-16T06:57:58;5.03;;;4.83;;
5612;SDS011;63463;53.586;9.928;2023-01-16T07:00:24;4.80;;;4.50;;
5612;SDS011;63463;53.586;9.928;2023-01-16T07:02:54;4.83;;;4.53;;
5612;SDS011;63463;53.586;9.928;2023-01-16T07:05:24;5.10;;;4.60;;
5612;SDS011;63463;53.586;9.928;2023-01-16T07:07:50;5.20;;;4.80;;
5612;SDS011;63463;53.586;9.928;2023-01-16T07:10:17;5.03;;;4.83;;
5612;SDS011;63463;53.586;9.928;2023-01-16T07:12:45;5.43;;;4.90;;
5612;SDS011;63463;53.586;9.928;2023-01-16T07:15:11;5.60;;;5.10;;
5612;SDS011;63463;53.586;9.928;2023-01-16T07:17:55;6.17;;;5.03;;
5612;SDS011;63463;53.586;9.928;2023-01-16T07:20:40;6.80;;;4.73;;
5612;SDS011;63463;53.586;9.928;2023-01-16T07:23:30;6.47;;;5.27;;
5612;SDS011;63463;53.586;9.928;2023-01-16T07:25:57;4.90;;;4.53;;
5612;SDS011;63463;53.586;9.928;2023-01-16T07:28:25;6.33;;;5.33;;
5612;SDS011;63463;53.586;9.928;2023-01-16T07:30:51;5.67;;;4.90;;
5612;SDS011;63463;53.586;9.928;2023-01-16T07:33:17;5.37;;;4.90;;
5612;SDS011;63463;53.586;9.928;2023-01-16T07:35:43;9.10;;;5.00;;
5612;SDS011;63463;53.586;9.928;2023-01-16T07:38:10;5.43;;;4.87;;
5612;SDS011;63463;53.586;9.928;2023-01-16T07:40:36;6.07;;;4.67;;
5612;SDS011;63463;53.586;9.928;2023-01-16T07:43:02;5.53;;;5.03;;
5612;SDS011;63463;53.586;9.928;2023-01-16T07:45:28;5.43;;;4.93;;
5612;SDS011;63463;53.586;9.928;2023-01-16T07:47:54;5.37;;;5.07;;
5612;SDS011;63463;53.586;9.928;2023-01-16T07:50:20;4.80;;;4.60;;
5612;SDS011;63463;53.586;9.928;2023-01-16T07:52:46;8.90;;;4.60;;
5612;SDS011;63463;53.586;9.928;2023-01-16T07:55:12;7.33;;;5.33;;
5612;SDS011;63463;53.586;9.928;2023-01-16T07:57:39;5.50;;;5.10;;
5612;SDS011;63463;53.586;9.928;2023-01-16T08:00:06;5.53;;;5.00;;
5612;SDS011;63463;53.586;9.928;2023-01-16T08:02:32;4.87;;;4.57;;
5612;SDS011;63463;53.586;9.928;2023-01-16T08:04:58;8.23;;;4.63;;
5612;SDS011;63463;53.586;9.928;2023-01-16T08:07:24;4.77;;;4.63;;
5612;SDS011;63463;53.586;9.928;2023-01-16T08:09:50;9.17;;;5.00;;
5612;SDS011;63463;53.586;9.928;2023-01-16T08:12:16;5.30;;;5.10;;
5612;SDS011;63463;53.586;9.928;2023-01-16T08:14:42;5.43;;;5.00;;
5612;SDS011;63463;53.586;9.928;2023-01-16T08:17:08;5.40;;;5.00;;
5612;SDS011;63463;53.586;9.928;2023-01-16T08:19:34;5.27;;;4.90;;
5612;SDS011;63463;53.586;9.928;2023-01-16T08:22:01;8.87;;;5.13;;
5612;SDS011;63463;53.586;9.928;2023-01-16T08:24:27;4.87;;;4.60;;
5612;SDS011;63463;53.586;9.928;2023-01-16T08:26:53;5.47;;;4.93;;
5612;SDS011;63463;53.586;9.928;2023-01-16T08:29:20;6.90;;;5.00;;
5612;SDS011;63463;53.586;9.928;2023-01-16T08:31:46;4.97;;;4.50;;
5612;SDS011;63463;53.586;9.928;2023-01-16T08:34:12;7.33;;;5.57;;
5612;SDS011;63463;53.586;9.928;2023-01-16T08:36:38;5.00;;;4.80;;
5612;SDS011;63463;53.586;9.928;2023-01-16T08:39:04;5.63;;;5.13;;
5612;SDS011;63463;53.586;9.928;2023-01-16T08:41:30;5.40;;;5.00;;
5612;SDS011;63463;53.586;9.928;2023-01-16T08:44:14;5.50;;;4.90;;
5612;SDS011;63463;53.586;9.928;2023-01-16T08:49:44;5.77;;;5.33;;
5612;SDS011;63463;53.586;9.928;2023-01-16T08:52:29;4.50;;;4.40;;
5612;SDS011;63463;53.586;9.928;2023-01-16T08:54:58;5.50;;;5.10;;
5612;SDS011;63463;53.586;9.928;2023-01-16T08:57:25;5.50;;;5.10;;
5612;SDS011;63463;53.586;9.928;2023-01-16T08:59:52;5.60;;;5.27;;
5612;SDS011;63463;53.586;9.928;2023-01-16T09:02:18;5.60;;;5.20;;
5612;SDS011;63463;53.586;9.928;2023-01-16T09:04:44;5.20;;;5.00;;
5612;SDS011;63463;53.586;9.928;2023-01-16T09:07:11;5.20;;;4.90;;
5612;SDS011;63463;53.586;9.928;2023-01-16T09:09:37;5.73;;;4.97;;
5612;SDS011;63463;53.586;9.928;2023-01-16T09:12:05;5.13;;;4.83;;
5612;SDS011;63463;53.586;9.928;2023-01-16T09:14:50;5.20;;;4.90;;
5612;SDS011;63463;53.586;9.928;2023-01-16T09:17:16;5.67;;;5.27;;
5612;SDS011;63463;53.586;9.928;2023-01-16T09:19:42;5.40;;;5.00;;
5612;SDS011;63463;53.586;9.928;2023-01-16T09:22:07;5.00;;;4.80;;
5612;SDS011;63463;53.586;9.928;2023-01-16T09:24:34;7.70;;;5.17;;
5612;SDS011;63463;53.586;9.928;2023-01-16T09:27:00;4.83;;;4.63;;
5612;SDS011;63463;53.586;9.928;2023-01-16T09:29:27;5.73;;;4.93;;
5612;SDS011;63463;53.586;9.928;2023-01-16T09:31:53;5.20;;;4.90;;
5612;SDS011;63463;53.586;9.928;2023-01-16T09:34:19;4.47;;;4.37;;
5612;SDS011;63463;53.586;9.928;2023-01-16T09:36:45;4.97;;;4.67;;
5612;SDS011;63463;53.586;9.928;2023-01-16T09:39:11;5.70;;;5.20;;
5612;SDS011;63463;53.586;9.928;2023-01-16T09:41:40;5.90;;;4.77;;
5612;SDS011;63463;53.586;9.928;2023-01-16T09:44:29;4.90;;;4.60;;
5612;SDS011;63463;53.586;9.928;2023-01-16T09:46:55;5.00;;;4.80;;
5612;SDS011;63463;53.586;9.928;2023-01-16T09:49:31;5.20;;;4.90;;
5612;SDS011;63463;53.586;9.928;2023-01-16T09:52:06;5.53;;;5.23;;
5612;SDS011;63463;53.586;9.928;2023-01-16T09:54:55;4.97;;;4.80;;
5612;SDS011;63463;53.586;9.928;2023-01-16T09:57:40;5.30;;;4.90;;
5612;SDS011;63463;53.586;9.928;2023-01-16T10:00:26;5.30;;;5.10;;
5612;SDS011;63463;53.586;9.928;2023-01-16T10:02:54;4.93;;;4.83;;
5612;SDS011;63463;53.586;9.928;2023-01-16T10:05:21;5.30;;;4.90;;
5612;SDS011;63463;53.586;9.928;2023-01-16T10:25:26;4.63;;;4.53;;
5612;SDS011;63463;53.586;9.928;2023-01-16T10:30:30;5.13;;;4.93;;
5612;SDS011;63463;53.586;9.928;2023-01-16T10:33:11;6.93;;;5.30;;
5612;SDS011;63463;53.586;9.928;2023-01-16T10:35:42;5.93;;;5.43;;
5612;SDS011;63463;53.586;9.928;2023-01-16T10:38:54;5.57;;;4.90;;
5612;SDS011;63463;53.586;9.928;2023-01-16T10:40:59;4.90;;;4.70;;
5612;SDS011;63463;53.586;9.928;2023-01-16T10:43:32;6.57;;;5.03;;
5612;SDS011;63463;53.586;9.928;2023-01-16T10:46:19;4.93;;;4.50;;
5612;SDS011;63463;53.586;9.928;2023-01-16T10:49:06;5.27;;;4.67;;
5612;SDS011;63463;53.586;9.928;2023-01-16T10:51:51;4.67;;;4.47;;
5612;SDS011;63463;53.586;9.928;2023-01-16T10:54:17;5.37;;;4.87;;
5612;SDS011;63463;53.586;9.928;2023-01-16T10:56:43;4.93;;;4.73;;
5612;SDS011;63463;53.586;9.928;2023-01-16T10:59:12;7.60;;;4.70;;
5612;SDS011;63463;53.586;9.928;2023-01-16T11:01:39;10.13;;;5.43;;
5612;SDS011;63463;53.586;9.928;2023-01-16T11:04:08;5.10;;;4.60;;
5612;SDS011;63463;53.586;9.928;2023-01-16T11:06:34;4.93;;;4.67;;
5612;SDS011;63463;53.586;9.928;2023-01-16T11:09:03;5.03;;;4.60;;
5612;SDS011;63463;53.586;9.928;2023-01-16T11:11:30;5.80;;;5.30;;
5612;SDS011;63463;53.586;9.928;2023-01-16T11:14:21;4.60;;;4.40;;
5612;SDS011;63463;53.586;9.928;2023-01-16T11:20:12;5.33;;;4.80;;
5612;SDS011;63463;53.586;9.928;2023-01-16T11:22:39;4.60;;;4.50;;
5612;SDS011;63463;53.586;9.928;2023-01-16T11:25:06;5.23;;;4.93;;
5612;SDS011;63463;53.586;9.928;2023-01-16T11:27:34;5.10;;;4.90;;
5612;SDS011;63463;53.586;9.928;2023-01-16T11:30:03;5.30;;;5.00;;
5612;SDS011;63463;53.586;9.928;2023-01-16T11:32:29;4.63;;;4.50;;
5612;SDS011;63463;53.586;9.928;2023-01-16T11:35:03;4.90;;;4.60;;
5612;SDS011;63463;53.586;9.928;2023-01-16T11:37:36;4.77;;;4.43;;
5612;SDS011;63463;53.586;9.928;2023-01-16T11:40:02;5.00;;;4.60;;
5612;SDS011;63463;53.586;9.928;2023-01-16T11:42:29;5.57;;;4.87;;
5612;SDS011;63463;53.586;9.928;2023-01-16T11:45:15;4.80;;;4.50;;
5612;SDS011;63463;53.586;9.928;2023-01-16T11:48:01;4.90;;;4.63;;
5612;SDS011;63463;53.586;9.928;2023-01-16T11:50:57;4.70;;;4.50;;
5612;SDS011;63463;53.586;9.928;2023-01-16T11:53:30;5.57;;;5.00;;
5612;SDS011;63463;53.586;9.928;2023-01-16T11:58:48;5.73;;;4.90;;
5612;SDS011;63463;53.586;9.928;2023-01-16T12:01:13;4.70;;;4.50;;
5612;SDS011;63463;53.586;9.928;2023-01-16T12:06:09;5.23;;;4.57;;
5612;SDS011;63463;53.586;9.928;2023-01-16T12:11:14;4.80;;;4.53;;
5612;SDS011;63463;53.586;9.928;2023-01-16T12:13:46;4.97;;;4.60;;
5612;SDS011;63463;53.586;9.928;2023-01-16T12:21:29;4.70;;;4.40;;
5612;SDS011;63463;53.586;9.928;2023-01-16T12:24:05;5.13;;;4.40;;
5612;SDS011;63463;53.586;9.928;2023-01-16T12:26:41;6.07;;;4.30;;
5612;SDS011;63463;53.586;9.928;2023-01-16T12:29:12;4.60;;;4.40;;
5612;SDS011;63463;53.586;9.928;2023-01-16T12:39:40;4.30;;;4.10;;
5612;SDS011;63463;53.586;9.928;2023-01-16T12:50:23;19.63;;;4.83;;
5612;SDS011;63463;53.586;9.928;2023-01-16T12:55:43;4.20;;;3.93;;
5612;SDS011;63463;53.586;9.928;2023-01-16T12:58:11;4.63;;;4.33;;
5612;SDS011;63463;53.586;9.928;2023-01-16T13:00:58;4.30;;;4.10;;
5612;SDS011;63463;53.586;9.928;2023-01-16T13:03:29;7.50;;;4.10;;
5612;SDS011;63463;53.586;9.928;2023-01-16T13:06:00;4.50;;;4.20;;
5612;SDS011;63463;53.586;9.928;2023-01-16T13:11:02;5.30;;;4.30;;
5612;SDS011;63463;53.586;9.928;2023-01-16T13:13:50;4.77;;;4.20;;
5612;SDS011;63463;53.586;9.928;2023-01-16T13:21:19;4.50;;;4.30;;
5612;SDS011;63463;53.586;9.928;2023-01-16T13:23:50;7.63;;;5.37;;
5612;SDS011;63463;53.586;9.928;2023-01-16T13:26:18;5.13;;;4.73;;
5612;SDS011;63463;53.586;9.928;2023-01-16T13:31:22;5.20;;;4.80;;
5612;SDS011;63463;53.586;9.928;2023-01-16T13:33:51;4.30;;;4.10;;
5612;SDS011;63463;53.586;9.928;2023-01-16T13:39:00;5.00;;;4.53;;
5612;SDS011;63463;53.586;9.928;2023-01-16T13:41:39;4.80;;;4.50;;
5612;SDS011;63463;53.586;9.928;2023-01-16T13:44:14;4.63;;;4.33;;
5612;SDS011;63463;53.586;9.928;2023-01-16T13:47:19;9.23;;;4.90;;
5612;SDS011;63463;53.586;9.928;2023-01-16T13:50:05;4.73;;;4.53;;
5612;SDS011;63463;53.586;9.928;2023-01-16T13:52:31;4.90;;;4.60;;
5612;SDS011;63463;53.586;9.928;2023-01-16T13:55:00;4.93;;;4.63;;
5612;SDS011;63463;53.586;9.928;2023-01-16T13:57:27;4.80;;;4.60;;
5612;SDS011;63463;53.586;9.928;2023-01-16T13:59:54;4.80;;;4.40;;
5612;SDS011;63463;53.586;9.928;2023-01-16T14:02:25;5.43;;;4.93;;
5612;SDS011;63463;53.586;9.928;2023-01-16T14:15:55;4.87;;;4.57;;
5612;SDS011;63463;53.586;9.928;2023-01-16T14:21:19;5.73;;;4.80;;
5612;SDS011;63463;53.586;9.928;2023-01-16T14:23:53;7.53;;;4.63;;
5612;SDS011;63463;53.586;9.928;2023-01-16T14:26:32;6.77;;;6.17;;
5612;SDS011;63463;53.586;9.928;2023-01-16T14:29:09;5.40;;;4.93;;
5612;SDS011;63463;53.586;9.928;2023-01-16T14:31:41;4.90;;;4.70;;
5612;SDS011;63463;53.586;9.928;2023-01-16T14:34:14;4.60;;;4.40;;
5612;SDS011;63463;53.586;9.928;2023-01-16T14:36:42;5.83;;;5.43;;
5612;SDS011;63463;53.586;9.928;2023-01-16T14:39:29;4.60;;;4.40;;
5612;SDS011;63463;53.586;9.928;2023-01-16T14:42:01;4.60;;;4.40;;
5612;SDS011;63463;53.586;9.928;2023-01-16T14:47:59;5.67;;;5.10;;
5612;SDS011;63463;53.586;9.928;2023-01-16T14:50:58;4.97;;;4.70;;
5612;SDS011;63463;53.586;9.928;2023-01-16T14:53:44;5.10;;;4.87;;
5612;SDS011;63463;53.586;9.928;2023-01-16T14:56:31;4.70;;;4.50;;
5612;SDS011;63463;53.586;9.928;2023-01-16T15:01:40;4.80;;;4.50;;
5612;SDS011;63463;53.586;9.928;2023-01-16T15:04:28;8.67;;;5.00;;
5612;SDS011;63463;53.586;9.928;2023-01-16T15:06:58;4.80;;;4.50;;
5612;SDS011;63463;53.586;9.928;2023-01-16T15:09:26;7.90;;;5.10;;
5612;SDS011;63463;53.586;9.928;2023-01-16T15:14:20;4.20;;;4.00;;
5612;SDS011;63463;53.586;9.928;2023-01-16T15:17:01;8.43;;;4.97;;
5612;SDS011;63463;53.586;9.928;2023-01-16T15:19:56;5.10;;;4.80;;
5612;SDS011;63463;53.586;9.928;2023-01-16T15:22:43;5.10;;;4.70;;
5612;SDS011;63463;53.586;9.928;2023-01-16T15:25:16;5.07;;;4.60;;
5612;SDS011;63463;53.586;9.928;2023-01-16T15:27:45;4.97;;;4.57;;
5612;SDS011;63463;53.586;9.928;2023-01-16T15:30:15;4.90;;;4.60;;
5612;SDS011;63463;53.586;9.928;2023-01-16T15:32:53;4.53;;;4.33;;
5612;SDS011;63463;53.586;9.928;2023-01-16T15:35:20;7.10;;;4.53;;
5612;SDS011;63463;53.586;9.928;2023-01-16T15:37:56;5.43;;;4.90;;
5612;SDS011;63463;53.586;9.928;2023-01-16T15:40:23;8.63;;;5.10;;
5612;SDS011;63463;53.586;9.928;2023-01-16T15:42:51;5.53;;;5.13;;
5612;SDS011;63463;53.586;9.928;2023-01-16T15:45:36;4.33;;;4.13;;
5612;SDS011;63463;53.586;9.928;2023-01-16T15:51:01;5.60;;;4.80;;
5612;SDS011;63463;53.586;9.928;2023-01-16T15:53:31;6.23;;;4.60;;
5612;SDS011;63463;53.586;9.928;2023-01-16T15:56:01;4.97;;;4.60;;
5612;SDS011;63463;53.586;9.928;2023-01-16T15:58:27;13.07;;;4.70;;
5612;SDS011;63463;53.586;9.928;2023-01-16T16:00:57;4.77;;;4.47;;
5612;SDS011;63463;53.586;9.928;2023-01-16T16:03:27;15.43;;;5.33;;
5612;SDS011;63463;53.586;9.928;2023-01-16T16:05:55;5.93;;;5.03;;
5612;SDS011;63463;53.586;9.928;2023-01-16T16:08:24;5.20;;;4.90;;
5612;SDS011;63463;53.586;9.928;2023-01-16T16:10:51;5.63;;;5.17;;
5612;SDS011;63463;53.586;9.928;2023-01-16T16:13:36;5.47;;;5.10;;
5612;SDS011;63463;53.586;9.928;2023-01-16T16:16:03;12.30;;;5.60;;
5612;SDS011;63463;53.586;9.928;2023-01-16T16:18:59;4.97;;;4.57;;
5612;SDS011;63463;53.586;9.928;2023-01-16T16:21:27;5.73;;;5.23;;
5612;SDS011;63463;53.586;9.928;2023-01-16T16:23:55;4.57;;;4.37;;
5612;SDS011;63463;53.586;9.928;2023-01-16T16:26:21;4.70;;;4.40;;
5612;SDS011;63463;53.586;9.928;2023-01-16T16:28:48;5.40;;;4.83;;
5612;SDS011;63463;53.586;9.928;2023-01-16T16:31:15;4.90;;;4.70;;
5612;SDS011;63463;53.586;9.928;2023-01-16T16:33:42;4.93;;;4.63;;
5612;SDS011;63463;53.586;9.928;2023-01-16T16:36:13;4.90;;;4.50;;
5612;SDS011;63463;53.586;9.928;2023-01-16T16:53:44;7.73;;;4.80;;
5612;SDS011;63463;53.586;9.928;2023-01-16T16:56:12;4.70;;;4.40;;
5612;SDS011;63463;53.586;9.928;2023-01-16T16:58:42;5.23;;;4.80;;
5612;SDS011;63463;53.586;9.928;2023-01-16T17:01:12;4.70;;;4.37;;
5612;SDS011;63463;53.586;9.928;2023-01-16T17:03:39;5.30;;;4.90;;
5612;SDS011;63463;53.586;9.928;2023-01-16T17:06:06;9.30;;;4.90;;
5612;SDS011;63463;53.586;9.928;2023-01-16T17:08:33;5.20;;;4.90;;
5612;SDS011;63463;53.586;9.928;2023-01-16T17:10:59;5.40;;;5.00;;
5612;SDS011;63463;53.586;9.928;2023-01-16T17:13:25;4.80;;;4.60;;
5612;SDS011;63463;53.586;9.928;2023-01-16T17:15:54;4.63;;;4.53;;
5612;SDS011;63463;53.586;9.928;2023-01-16T17:18:23;4.90;;;4.50;;
5612;SDS011;63463;53.586;9.928;2023-01-16T17:20:50;8.17;;;5.17;;
5612;SDS011;63463;53.586;9.928;2023-01-16T17:23:19;4.50;;;4.30;;
5612;SDS011;63463;53.586;9.928;2023-01-16T17:25:45;4.30;;;4.20;;
5612;SDS011;63463;53.586;9.928;2023-01-16T17:28:12;4.90;;;4.60;;
5612;SDS011;63463;53.586;9.928;2023-01-16T17:30:38;7.00;;;4.40;;
5612;SDS011;63463;53.586;9.928;2023-01-16T17:33:06;4.80;;;4.50;;
5612;SDS011;63463;53.586;9.928;2023-01-16T17:35:39;6.10;;;4.60;;
5612;SDS011;63463;53.586;9.928;2023-01-16T17:38:24;5.67;;;5.07;;
5612;SDS011;63463;53.586;9.928;2023-01-16T17:40:50;4.63;;;4.40;;
5612;SDS011;63463;53.586;9.928;2023-01-16T17:43:17;5.17;;;4.80;;
5612;SDS011;63463;53.586;9.928;2023-01-16T17:46:05;4.37;;;4.10;;